Time;durP1;ratioP1;P1;durP2;ratioP2;P2;SDS_P1;SDS_P2;PMS_P1;PMS_P2;Temp;Humidity;BMP_temperature;BMP_pressure;BME280_temperature;BME280_humidity;BME280_pressure;Samples;Min_cycle;Max_cycle;Signal;HPM_P1;HPM_P2
2021/06/01 00:00:58;;;;;;;5.95;1.47;;;;;;;31.58;37.31;159479.06;1683574;85;21206;-78
2021/06/01 00:03:31;;;;;;;2.75;1.50;;;;;;;31.60;37.30;159484.34;1683653;85;21737;-80
2021/06/01 00:06:03;;;;;;;1.72;1.32;;;;;;;31.58;37.28;159479.06;1689154;84;21230;-78
2021/06/01 00:08:36;;;;;;;1.55;1.37;;;;;;;31.73;37.12;159520.39;1683810;85;21755;-78
2021/06/01 00:11:08;;;;;;;4.17;1.60;;;;;;;31.86;36.97;159555.08;1682334;84;21233;-78
2021/06/01 00:13:42;;;;;;;1.67;1.20;;;;;;;31.67;37.10;159504.36;1685573;84;21277;-78
2021/06/01 00:16:15;;;;;;;1.45;1.02;;;;;;;31.65;37.10;159499.06;1688761;84;21201;-79
2021/06/01 00:18:47;;;;;;;2.95;1.40;;;;;;;31.82;36.91;159544.39;1685102;84;21291;-78
2021/06/01 00:21:19;;;;;;;2.50;1.20;;;;;;;31.77;36.93;159531.03;1686629;84;21750;-79
2021/06/01 00:23:54;;;;;;;1.70;1.20;;;;;;;31.72;36.97;159516.36;1698095;84;21283;-78
2021/06/01 00:26:26;;;;;;;2.22;1.30;;;;;;;31.71;36.96;159513.73;1694544;83;21760;-78
2021/06/01 00:28:58;;;;;;;1.32;1.02;;;;;;;31.70;36.94;159511.06;1683334;85;21713;-78
2021/06/01 00:31:31;;;;;;;4.08;1.20;;;;;;;31.68;36.95;159505.72;1683838;85;21277;-78
2021/06/01 00:34:04;;;;;;;2.00;1.50;;;;;;;31.68;36.92;159507.03;1683713;85;21305;-78
2021/06/01 00:36:36;;;;;;;1.70;1.12;;;;;;;31.63;36.95;159493.72;1686600;84;21231;-79
2021/06/01 00:39:09;;;;;;;1.10;1.00;;;;;;;31.58;36.95;159480.36;1696341;84;21285;-78
2021/06/01 00:41:42;;;;;;;1.20;1.00;;;;;;;31.59;36.94;159483.03;1682560;85;21241;-79
2021/06/01 00:44:14;;;;;;;2.20;1.52;;;;;;;31.60;36.91;159484.34;1683272;85;21210;-79
2021/06/01 00:46:46;;;;;;;1.60;1.10;;;;;;;31.52;36.98;159464.33;1687306;84;21188;-78
2021/06/01 00:49:19;;;;;;;1.75;1.27;;;;;;;31.55;36.92;159470.98;1692013;84;21223;-78
2021/06/01 00:51:52;;;;;;;2.37;1.80;;;;;;;31.55;36.96;159470.98;1682254;85;21198;-78
2021/06/01 00:54:24;;;;;;;2.58;1.37;;;;;;;31.55;36.89;159472.30;1691047;84;21260;-79
2021/06/01 00:56:57;;;;;;;1.47;1.12;;;;;;;31.50;36.93;159458.98;1685402;83;21182;-78
2021/06/01 00:59:29;;;;;;;3.17;1.55;;;;;;;31.48;36.97;159452.34;1684872;84;21242;-81
2021/06/01 01:02:05;;;;;;;3.20;1.15;;;;;;;31.50;36.90;159458.98;1685008;85;21250;-80
2021/06/01 01:04:38;;;;;;;1.67;1.07;;;;;;;31.46;36.91;159446.98;1685223;85;21253;-80
2021/06/01 01:07:23;;;;;;;1.77;1.12;;;;;;;31.45;36.91;159445.63;1684540;85;21270;-80
2021/06/01 01:09:48;;;;;;;1.32;1.10;;;;;;;31.46;36.87;159448.30;1684223;85;21764;-81
2021/06/01 01:12:30;;;;;;;2.22;1.17;;;;;;;31.48;36.85;159452.34;1684076;85;21234;-82
2021/06/01 01:15:06;;;;;;;1.52;1.07;;;;;;;31.54;36.74;159469.63;1678035;85;21705;-80
2021/06/01 01:17:49;;;;;;;1.30;1.20;;;;;;;31.55;36.70;159472.30;1685031;85;21195;-80
2021/06/01 01:20:45;;;;;;;1.67;1.05;;;;;;;31.40;36.83;159430.97;1684601;85;21234;-81
2021/06/01 01:23:20;;;;;;;2.35;1.15;;;;;;;31.36;36.88;159420.33;1684710;85;21678;-80
2021/06/01 01:26:28;;;;;;;1.82;1.17;;;;;;;31.50;36.68;159458.98;1685233;85;21702;-81
2021/06/01 01:29:19;;;;;;;2.22;1.20;;;;;;;31.51;36.60;159460.30;1671218;84;21340;-80
2021/06/01 01:31:59;;;;;;;1.75;1.30;;;;;;;31.46;36.64;159446.98;1689227;84;21193;-81
2021/06/01 01:34:32;;;;;;;;;;;;;;;31.42;36.66;159436.31;1687622;85;21241;-80
2021/06/01 01:37:04;;;;;;;2.22;1.30;;;;;;;31.23;36.80;159385.66;1684935;85;20330;-81
2021/06/01 01:39:42;;;;;;;1.80;1.50;;;;;;;31.12;36.91;159356.31;1657709;86;21721;-80
2021/06/01 01:42:12;;;;;;;2.62;1.30;;;;;;;30.94;37.15;159306.94;1657037;86;21337;-80
2021/06/01 01:44:51;;;;;;;3.27;1.00;;;;;;;30.86;37.23;159286.94;1657500;86;21400;-81
2021/06/01 01:50:09;;;;;;;3.58;1.20;;;;;;;30.95;37.12;159310.91;1685155;85;21253;-81
2021/06/01 01:52:42;;;;;;;2.30;1.22;;;;;;;30.87;37.18;159289.61;1684763;85;21182;-80
2021/06/01 01:55:15;;;;;;;1.65;1.10;;;;;;;30.82;37.24;159276.25;1684472;85;21266;-81
2021/06/01 01:57:48;;;;;;;1.87;1.20;;;;;;;30.81;37.26;159273.58;1681098;84;21896;-80
2021/06/01 02:00:22;;;;;;;2.50;1.70;;;;;;;30.77;37.27;159262.95;1705396;84;21188;-80
2021/06/01 02:02:55;;;;;;;3.55;0.98;;;;;;;30.77;37.29;159261.59;1705510;84;21215;-79
2021/06/01 02:05:28;;;;;;;1.70;1.00;;;;;;;30.73;37.34;159250.91;1705622;84;21366;-80
2021/06/01 02:08:01;;;;;;;1.77;1.20;;;;;;;30.73;37.32;159250.91;1705198;84;21193;-80
2021/06/01 02:10:35;;;;;;;2.45;1.17;;;;;;;30.71;37.34;159246.92;1703805;84;21207;-80
2021/06/01 02:13:07;;;;;;;1.72;0.98;;;;;;;30.74;37.30;159253.58;1705418;84;21270;-81
2021/06/01 02:15:39;;;;;;;2.10;1.12;;;;;;;30.72;37.29;159248.28;1705182;83;21232;-80
2021/06/01 02:18:12;;;;;;;2.62;1.32;;;;;;;30.76;37.21;159258.92;1705409;84;21702;-80
2021/06/01 02:20:46;;;;;;;1.80;1.20;;;;;;;30.79;37.15;159268.23;1706063;84;21264;-82
2021/06/01 02:26:15;;;;;;;1.70;1.20;;;;;;;30.82;37.11;159276.25;1660531;86;21332;-81
2021/06/01 02:28:51;;;;;;;1.37;0.90;;;;;;;30.84;37.07;159280.28;1704822;84;21220;-80
2021/06/01 02:31:33;;;;;;;2.25;1.40;;;;;;;30.82;37.07;159276.25;1705436;84;21204;-80
2021/06/01 02:34:08;;;;;;;2.55;1.10;;;;;;;30.76;37.09;159258.92;1704625;84;21192;-80
2021/06/01 02:36:41;;;;;;;4.28;1.30;;;;;;;30.75;37.10;159256.25;1705529;84;21769;-80
2021/06/01 02:39:14;;;;;;;3.92;1.30;;;;;;;30.64;37.19;159226.94;1705505;84;21212;-81
2021/06/01 02:41:46;;;;;;;2.00;1.35;;;;;;;30.64;37.17;159226.94;1648343;87;21250;-82
2021/06/01 02:44:18;;;;;;;1.27;1.02;;;;;;;30.64;37.16;159226.94;1645490;86;21298;-81
2021/06/01 02:46:50;;;;;;;4.22;1.20;;;;;;;30.62;37.19;159221.59;1636677;86;21257;-80
2021/06/01 02:49:23;;;;;;;3.47;1.40;;;;;;;30.58;37.21;159210.97;1661948;86;21384;-80
2021/06/01 02:51:55;;;;;;;1.70;1.22;;;;;;;30.59;37.20;159214.94;1661730;86;21482;-80
2021/06/01 02:54:28;;;;;;;1.12;1.00;;;;;;;30.57;37.21;159208.28;1661501;86;21396;-80
2021/06/01 02:57:02;;;;;;;2.37;1.27;;;;;;;30.52;37.30;159196.30;1611292;87;21186;-80
2021/06/01 02:59:35;;;;;;;2.37;1.20;;;;;;;30.58;37.22;159212.27;1657573;86;21210;-80
2021/06/01 03:02:07;;;;;;;1.32;1.00;;;;;;;30.60;37.22;159217.61;1659668;85;21214;-80
2021/06/01 03:04:51;;;;;;;2.98;1.37;;;;;;;30.57;37.21;159209.59;1685005;85;21337;-81
2021/06/01 03:07:24;;;;;;;1.60;1.15;;;;;;;30.65;37.14;159230.95;1682711;85;21332;-81
2021/06/01 03:09:57;;;;;;;2.60;1.20;;;;;;;30.68;37.10;159237.61;1684658;83;21401;-80
2021/06/01 03:15:06;;;;;;;3.40;1.30;;;;;;;30.69;37.05;159241.59;1685176;85;21195;-80
2021/06/01 03:17:38;;;;;;;2.20;1.22;;;;;;;30.67;37.08;159236.25;1685109;85;21234;-80
2021/06/01 03:20:12;;;;;;;3.27;1.40;;;;;;;30.81;36.90;159273.58;1684578;85;21285;-81
2021/06/01 03:22:44;;;;;;;2.83;1.07;;;;;;;30.86;36.85;159285.56;1685242;85;21214;-80
2021/06/01 03:25:17;;;;;;;2.40;1.10;;;;;;;30.85;36.82;159282.91;1684655;84;21388;-81
2021/06/01 03:27:50;;;;;;;1.55;1.30;;;;;;;30.91;36.73;159298.92;1685076;84;21229;-79
2021/06/01 03:30:22;;;;;;;3.08;1.67;;;;;;;30.99;36.66;159320.23;1684827;85;21332;-79
2021/06/01 03:32:57;;;;;;;1.85;1.62;;;;;;;31.00;36.61;159322.91;1684949;85;21182;-77
2021/06/01 03:35:30;;;;;;;1.72;1.20;;;;;;;30.95;36.65;159309.61;1685042;83;21341;-77
2021/06/01 03:38:02;;;;;;;1.30;1.20;;;;;;;30.95;36.63;159310.91;1685000;85;21218;-78
2021/06/01 03:40:34;;;;;;;2.02;1.37;;;;;;;30.94;36.62;159306.94;1684914;85;21266;-77
2021/06/01 03:43:07;;;;;;;2.70;1.45;;;;;;;30.95;36.60;159310.91;1685015;85;21249;-77
2021/06/01 03:45:39;;;;;;;1.82;1.20;;;;;;;30.92;36.65;159302.91;1684998;85;21174;-77
2021/06/01 03:48:12;;;;;;;1.30;1.20;;;;;;;30.91;36.66;159300.23;1685477;83;21375;-78
2021/06/01 03:50:45;;;;;;;1.35;1.15;;;;;;;30.90;36.67;159297.56;1683195;83;21838;-78
2021/06/01 03:53:18;;;;;;;2.42;1.45;;;;;;;30.90;36.66;159296.25;1663147;83;21266;-78
2021/06/01 03:55:51;;;;;;;1.35;1.10;;;;;;;30.90;36.69;159297.56;1660453;85;21317;-80
2021/06/01 03:58:24;;;;;;;1.57;1.15;;;;;;;30.91;36.67;159298.92;1659387;84;21293;-79
2021/06/01 04:00:56;;;;;;;3.02;1.60;;;;;;;30.95;36.65;159309.61;1666629;84;21190;-79
2021/06/01 04:03:29;;;;;;;1.87;1.40;;;;;;;30.98;36.61;159318.92;1659269;84;21895;-79
2021/06/01 04:06:02;;;;;;;1.60;1.27;;;;;;;30.97;36.61;159316.25;1657174;85;21352;-79
2021/06/01 04:08:35;;;;;;;2.75;1.40;;;;;;;30.93;36.67;159305.58;1663873;84;21259;-82
2021/06/01 04:11:08;;;;;;;1.85;1.47;;;;;;;30.93;36.70;159305.58;1664149;84;21388;-79
2021/06/01 04:13:40;;;;;;;2.02;1.40;;;;;;;30.98;36.61;159318.92;1670195;83;21226;-76
2021/06/01 04:16:13;;;;;;;2.85;1.37;;;;;;;30.98;36.60;159317.56;1667242;84;21195;-75
2021/06/01 04:18:46;;;;;;;1.40;1.30;;;;;;;30.99;36.61;159320.23;1664924;84;21873;-79
2021/06/01 04:21:18;;;;;;;1.70;1.30;;;;;;;31.00;36.57;159324.27;1669294;84;21258;-77
2021/06/01 04:23:51;;;;;;;2.80;1.37;;;;;;;30.99;36.60;159320.23;1660228;84;21713;-79
2021/06/01 04:26:24;;;;;;;1.52;1.35;;;;;;;30.98;36.57;159318.92;1664283;84;21205;-78
2021/06/01 04:28:59;;;;;;;3.20;1.30;;;;;;;30.99;36.56;159321.59;1664904;85;21756;-78
2021/06/01 04:31:32;;;;;;;2.12;1.40;;;;;;;31.00;36.57;159322.91;1661806;85;21364;-79
2021/06/01 04:34:05;;;;;;;3.80;1.62;;;;;;;30.98;36.55;159318.92;1668363;83;21282;-81
2021/06/01 04:36:37;;;;;;;2.20;1.30;;;;;;;30.97;36.53;159314.89;1659807;83;21420;-80
2021/06/01 04:39:12;;;;;;;1.30;1.17;;;;;;;30.95;36.60;159309.61;1659224;84;21400;-78
2021/06/01 04:41:45;;;;;;;2.67;1.10;;;;;;;30.91;36.60;159298.92;1660917;84;21435;-82
2021/06/01 04:44:17;;;;;;;1.27;1.17;;;;;;;30.92;36.58;159301.59;1661796;84;21306;-79
2021/06/01 04:46:50;;;;;;;1.10;1.00;;;;;;;30.93;36.58;159305.58;1661259;84;21395;-79
2021/06/01 04:49:23;;;;;;;1.45;1.30;;;;;;;30.93;36.58;159305.58;1661659;84;21515;-80
2021/06/01 04:51:55;;;;;;;2.98;1.50;;;;;;;31.02;36.47;159328.25;1661448;84;21403;-79
2021/06/01 04:54:27;;;;;;;6.20;1.50;;;;;;;31.16;36.38;159366.95;1669859;83;21713;-80
2021/06/01 04:57:00;;;;;;;3.65;1.30;;;;;;;31.03;36.45;159330.97;1662905;83;21321;-79
2021/06/01 04:59:32;;;;;;;1.47;1.32;;;;;;;31.03;36.44;159330.97;1658565;85;21389;-80
2021/06/01 05:02:06;;;;;;;1.40;1.20;;;;;;;31.05;36.43;159337.63;1672629;84;21278;-78
2021/06/01 05:04:38;;;;;;;2.70;1.72;;;;;;;31.10;36.37;159350.98;1669160;83;21233;-80
2021/06/01 05:07:12;;;;;;;2.15;1.30;;;;;;;31.10;36.36;159350.98;1683043;83;21798;-79
2021/06/01 05:09:44;;;;;;;1.52;1.07;;;;;;;31.14;36.27;159361.61;1685561;83;21214;-79
2021/06/01 05:12:17;;;;;;;2.15;1.30;;;;;;;31.19;36.23;159374.97;1682569;83;21349;-79
2021/06/01 05:14:49;;;;;;;3.35;1.20;;;;;;;31.20;36.21;159377.64;1655896;86;21246;-79
2021/06/01 05:17:23;;;;;;;4.30;1.90;;;;;;;31.21;36.22;159378.94;1684907;84;21199;-80
2021/06/01 05:19:56;;;;;;;1.75;1.05;;;;;;;31.22;36.24;159382.98;1684778;85;21713;-79
2021/06/01 05:22:28;;;;;;;2.87;1.22;;;;;;;31.27;36.19;159396.28;1684569;85;21907;-79
2021/06/01 05:25:01;;;;;;;12.47;3.50;;;;;;;31.30;36.17;159404.30;1693175;83;21381;-79
2021/06/01 05:27:34;;;;;;;1.47;1.30;;;;;;;31.35;36.11;159417.66;1715379;83;21234;-78
2021/06/01 05:30:08;;;;;;;2.47;1.10;;;;;;;31.30;36.18;159404.30;1724412;83;21281;-79
2021/06/01 05:33:09;;;;;;;2.67;1.30;;;;;;;31.32;36.13;159410.95;1675251;83;21287;-79
2021/06/01 05:35:25;;;;;;;3.30;1.15;;;;;;;31.33;36.11;159412.31;1652999;86;21203;-79
2021/06/01 05:37:55;;;;;;;1.65;1.20;;;;;;;31.31;36.11;159406.97;1655808;86;21215;-79
2021/06/01 05:40:28;;;;;;;3.35;1.30;;;;;;;31.31;36.16;159408.28;1655815;86;21367;-81
2021/06/01 05:43:02;;;;;;;2.37;1.10;;;;;;;31.40;36.15;159430.97;1681764;83;21200;-78
2021/06/01 05:45:34;;;;;;;3.42;1.15;;;;;;;31.47;36.11;159449.66;1671145;84;21392;-79
2021/06/01 05:48:10;;;;;;;1.65;1.25;;;;;;;31.40;36.19;159432.33;1659501;85;21391;-78
2021/06/01 05:50:43;;;;;;;2.10;1.20;;;;;;;31.47;36.10;159449.66;1657348;86;21228;-78
2021/06/01 05:53:19;;;;;;;0.90;0.90;;;;;;;31.51;36.04;159460.30;1676474;85;21336;-78
2021/06/01 05:55:51;;;;;;;1.17;1.00;;;;;;;31.56;36.01;159473.70;1684978;85;21341;-80
2021/06/01 05:58:24;;;;;;;2.85;0.98;;;;;;;31.58;36.07;159479.06;1684846;85;21281;-78
2021/06/01 06:00:56;;;;;;;1.80;1.10;;;;;;;31.66;35.90;159500.37;1688637;84;21390;-79
2021/06/01 06:03:29;;;;;;;2.58;1.30;;;;;;;31.63;35.90;159492.36;1690758;84;21715;-79
2021/06/01 06:06:04;;;;;;;2.45;1.30;;;;;;;31.69;35.84;159509.70;1679977;85;21338;-80
2021/06/01 06:08:35;;;;;;;1.30;1.05;;;;;;;31.69;35.82;159509.70;1679940;85;21409;-80
2021/06/01 06:11:09;;;;;;;2.47;1.17;;;;;;;31.74;35.71;159521.70;1680333;84;21712;-79
2021/06/01 06:13:41;;;;;;;1.27;1.02;;;;;;;31.77;35.64;159529.72;1679999;85;21350;-78
2021/06/01 06:16:18;;;;;;;1.10;1.00;;;;;;;31.80;35.56;159539.05;1684901;84;21204;-77
2021/06/01 06:18:59;;;;;;;1.07;1.00;;;;;;;31.77;35.42;159531.03;1707828;84;21312;-77
2021/06/01 06:21:32;;;;;;;1.92;0.93;;;;;;;31.71;35.47;159513.73;1704842;84;21370;-79
2021/06/01 06:24:06;;;;;;;1.27;1.12;;;;;;;31.72;35.37;159517.72;1680307;84;21826;-77
2021/06/01 06:26:39;;;;;;;2.12;1.32;;;;;;;31.77;35.36;159529.72;1679837;85;21414;-78
2021/06/01 06:29:11;;;;;;;1.20;0.85;;;;;;;31.75;35.38;159525.73;1681137;84;21192;-78
2021/06/01 06:31:44;;;;;;;1.42;0.90;;;;;;;31.81;35.21;159541.72;1696845;84;21263;-77
2021/06/01 06:34:17;;;;;;;1.35;1.12;;;;;;;31.75;35.26;159525.73;1674244;85;21258;-78
2021/06/01 06:36:49;;;;;;;1.32;1.10;;;;;;;31.80;35.18;159539.05;1673968;86;21266;-78
2021/06/01 06:39:22;;;;;;;2.05;1.10;;;;;;;31.81;35.22;159541.72;1677345;84;21251;-79
2021/06/01 06:41:54;;;;;;;1.72;0.90;;;;;;;31.85;35.28;159552.41;1708241;84;21196;-77
2021/06/01 06:44:26;;;;;;;1.42;0.90;;;;;;;31.93;35.35;159572.42;1708655;84;21374;-78
2021/06/01 06:49:41;;;;;;;2.47;0.80;;;;;;;31.95;35.43;159579.08;1690507;84;22421;-78
2021/06/01 06:52:15;;;;;;;2.25;1.00;;;;;;;31.99;35.46;159588.41;1708469;84;21798;-79
2021/06/01 06:54:47;;;;;;;1.42;1.07;;;;;;;32.06;35.51;159607.13;1708277;84;21298;-79
2021/06/01 06:57:19;;;;;;;2.20;0.82;;;;;;;32.09;35.48;159616.50;1707996;84;21236;-78
2021/06/01 06:59:51;;;;;;;1.42;1.00;;;;;;;32.11;35.36;159621.84;1705930;84;21268;-77
2021/06/01 07:02:24;;;;;;;2.75;1.35;;;;;;;32.08;35.29;159612.41;1696400;83;21349;-79
2021/06/01 07:04:56;;;;;;;2.92;1.05;;;;;;;32.19;35.09;159641.81;1703110;84;21812;-78
2021/06/01 07:07:29;;;;;;;1.75;1.00;;;;;;;32.21;34.97;159647.16;1703039;84;21217;-79
2021/06/01 07:10:01;;;;;;;1.42;0.85;;;;;;;32.27;34.99;159665.88;1673267;84;21249;-80
2021/06/01 07:12:34;;;;;;;1.07;0.82;;;;;;;32.27;35.07;159664.52;1660715;84;21285;-82
2021/06/01 07:15:16;;;;;;;1.20;0.80;;;;;;;32.37;34.92;159691.19;1663385;84;21833;-80
2021/06/01 07:17:51;;;;;;;1.65;1.40;;;;;;;32.43;34.83;159708.55;1659498;84;21783;-82
2021/06/01 07:20:26;;;;;;;1.17;0.98;;;;;;;32.42;34.71;159705.88;1639756;85;21242;-80
2021/06/01 07:23:00;;;;;;;2.70;1.25;;;;;;;32.45;34.65;159713.89;1657370;84;21257;-80
2021/06/01 07:25:33;;;;;;;1.00;0.90;;;;;;;32.48;34.59;159721.91;1658893;84;21682;-80
2021/06/01 07:28:06;;;;;;;1.70;0.98;;;;;;;32.49;34.59;159723.22;1657887;84;21250;-83
2021/06/01 07:30:39;;;;;;;2.40;1.22;;;;;;;32.46;34.65;159716.56;1654351;84;21262;-80
2021/06/01 07:33:13;;;;;;;2.60;1.15;;;;;;;32.48;34.53;159721.91;1653266;84;21298;-78
2021/06/01 07:35:46;;;;;;;0.95;0.90;;;;;;;32.52;34.47;159731.25;1651295;84;21246;-81
2021/06/01 07:38:20;;;;;;;2.47;1.20;;;;;;;32.59;34.43;159749.91;1656850;84;21218;-81
2021/06/01 07:40:53;;;;;;;3.20;1.00;;;;;;;32.54;34.40;159736.59;1663596;84;21214;-79
2021/06/01 07:43:27;;;;;;;1.05;0.90;;;;;;;32.51;34.35;159728.58;1652757;84;21748;-81
2021/06/01 07:46:07;;;;;;;2.80;1.25;;;;;;;32.50;34.39;159725.91;1651037;84;21800;-79
2021/06/01 07:48:37;;;;;;;2.40;0.88;;;;;;;32.58;34.34;159748.59;1655101;84;21297;-78
2021/06/01 07:51:12;;;;;;;3.08;0.90;;;;;;;32.46;34.42;159715.25;1652154;84;21241;-80
2021/06/01 07:53:44;;;;;;;1.07;0.80;;;;;;;32.55;34.40;159740.58;1664449;83;21229;-81
2021/06/01 07:56:18;;;;;;;2.02;1.00;;;;;;;32.55;34.20;159739.27;1662124;84;21776;-80
2021/06/01 07:58:51;;;;;;;1.95;0.82;;;;;;;32.56;34.15;159743.25;1658396;84;21218;-80
2021/06/01 08:01:25;;;;;;;3.17;0.82;;;;;;;32.60;34.20;159754.00;1664056;84;21230;-82
2021/06/01 08:03:58;;;;;;;2.60;0.90;;;;;;;32.59;34.18;159751.33;1666424;84;21235;-79
2021/06/01 08:06:35;;;;;;;0.85;0.80;;;;;;;32.69;34.02;159776.70;1673178;84;21416;-81
2021/06/01 08:09:06;;;;;;;1.52;0.68;;;;;;;32.64;34.07;159764.64;1667177;84;21718;-84
2021/06/01 08:11:38;;;;;;;3.42;1.00;;;;;;;32.68;34.11;159774.03;1661373;84;21336;-81
2021/06/01 08:14:12;;;;;;;2.33;1.07;;;;;;;32.75;34.01;159792.69;1659984;84;21447;-81
2021/06/01 08:16:45;;;;;;;1.15;0.90;;;;;;;32.67;34.05;159772.66;1659127;84;21286;-80
2021/06/01 08:19:24;;;;;;;1.27;0.82;;;;;;;32.69;33.94;159778.02;1665159;84;21422;-81
2021/06/01 08:24:26;;;;;;;1.05;0.80;;;;;;;32.74;33.93;159791.39;1663539;84;21186;-84
2021/06/01 08:26:58;;;;;;;1.62;1.00;;;;;;;32.83;33.91;159814.03;1659692;84;21255;-84
2021/06/01 08:29:31;;;;;;;2.62;0.90;;;;;;;32.88;33.80;159828.72;1659205;85;21194;-83
2021/06/01 08:32:04;;;;;;;2.50;0.90;;;;;;;32.90;33.72;159834.06;1667969;84;21402;-83
2021/06/01 08:34:37;;;;;;;2.05;0.95;;;;;;;32.94;33.70;159843.41;1665175;84;21230;-81
2021/06/01 08:37:10;;;;;;;1.30;0.93;;;;;;;32.99;33.83;159858.09;1666243;84;21906;-82
2021/06/01 08:39:42;;;;;;;1.52;0.85;;;;;;;33.06;33.77;159875.45;1672384;83;21386;-80
2021/06/01 08:42:16;;;;;;;0.85;0.80;;;;;;;33.15;33.64;159899.56;1683665;85;21353;-80
2021/06/01 08:44:51;;;;;;;3.30;0.85;;;;;;;33.19;33.55;159911.58;1684929;85;21370;-80
2021/06/01 08:47:23;;;;;;;1.25;0.90;;;;;;;33.23;33.48;159923.59;1684586;85;22280;-80
2021/06/01 08:49:56;;;;;;;1.20;0.80;;;;;;;33.29;33.30;159939.59;1685142;85;21225;-79
2021/06/01 08:52:28;;;;;;;3.58;0.85;;;;;;;33.35;33.09;159954.28;1685059;85;21376;-82
2021/06/01 08:55:01;;;;;;;3.35;1.10;;;;;;;33.40;32.92;159968.97;1684895;85;21388;-80
2021/06/01 08:57:36;;;;;;;1.60;0.98;;;;;;;33.35;32.90;159954.28;1685073;85;21380;-79
2021/06/01 09:00:11;;;;;;;1.80;0.80;;;;;;;33.37;32.87;159961.00;1661815;85;21298;-80
2021/06/01 09:02:43;;;;;;;1.30;0.98;;;;;;;33.36;33.00;159956.95;1685034;85;21214;-79
2021/06/01 09:05:20;;;;;;;1.10;1.00;;;;;;;33.45;32.96;159980.98;1684815;85;21698;-79
2021/06/01 09:08:01;;;;;;;0.80;0.80;;;;;;;33.51;32.92;159997.03;1685178;84;21269;-80
2021/06/01 09:13:37;;;;;;;5.30;1.15;;;;;;;33.58;33.02;160015.72;1685477;84;21254;-79
2021/06/01 09:21:50;;;;;;;1.17;0.85;;;;;;;33.69;32.78;160046.52;1685342;85;21230;-79
2021/06/01 09:24:22;;;;;;;1.47;0.90;;;;;;;33.71;32.93;160051.88;1685320;85;21255;-81
2021/06/01 09:27:00;;;;;;;0.85;0.80;;;;;;;33.77;32.81;160067.88;1685488;85;21899;-80
2021/06/01 09:29:32;;;;;;;2.25;0.95;;;;;;;33.80;32.75;160075.91;1685365;85;21253;-80
2021/06/01 09:32:11;;;;;;;1.82;0.80;;;;;;;33.83;32.56;160082.56;1685473;85;21340;-79
2021/06/01 09:34:46;;;;;;;1.40;0.98;;;;;;;33.92;32.49;160107.95;1685488;85;21353;-79
2021/06/01 09:37:27;;;;;;;1.37;0.88;;;;;;;33.90;32.46;160101.30;1685438;85;21950;-81
2021/06/01 09:40:18;;;;;;;1.07;0.93;;;;;;;34.01;32.34;160130.69;1685511;85;21261;-80
2021/06/01 09:42:52;;;;;;;2.50;1.00;;;;;;;34.07;32.28;160148.06;1685551;85;21277;-79
2021/06/01 09:45:26;;;;;;;1.00;0.90;;;;;;;34.12;32.31;160161.44;1685457;85;21872;-80
2021/06/01 09:48:08;;;;;;;2.20;1.00;;;;;;;34.16;32.13;160172.14;1685265;85;21215;-80
2021/06/01 09:53:26;;;;;;;1.47;0.70;;;;;;;34.20;31.78;160182.86;1685460;85;21221;-79
2021/06/01 09:55:57;;;;;;;2.75;1.02;;;;;;;34.21;31.66;160186.84;1685488;85;21201;-79
2021/06/01 09:58:34;;;;;;;0.70;0.70;;;;;;;34.23;31.62;160192.20;1685375;85;21290;-79
2021/06/01 10:01:07;;;;;;;1.30;1.02;;;;;;;34.21;31.57;160186.84;1685355;85;21238;-79
2021/06/01 10:03:51;;;;;;;3.65;1.40;;;;;;;34.22;31.33;160188.16;1685304;85;21233;-79
2021/06/01 10:06:19;;;;;;;3.35;0.80;;;;;;;34.18;31.28;160177.50;1685313;85;21192;-80
2021/06/01 10:08:53;;;;;;;2.17;1.00;;;;;;;34.17;31.26;160174.83;1684716;84;21246;-80
2021/06/01 10:11:30;;;;;;;2.98;0.90;;;;;;;34.19;31.19;160180.19;1684725;85;21404;-81
2021/06/01 10:14:00;;;;;;;1.12;0.80;;;;;;;34.20;30.88;160182.86;1662316;85;21488;-79
2021/06/01 10:16:32;;;;;;;1.22;0.72;;;;;;;34.20;30.77;160184.16;1684975;85;21352;-79
2021/06/01 10:19:05;;;;;;;1.17;0.90;;;;;;;34.18;30.94;160178.81;1684791;85;21380;-79
2021/06/01 10:21:37;;;;;;;2.15;0.80;;;;;;;34.16;31.01;160172.14;1684640;85;21368;-80
2021/06/01 10:24:12;;;;;;;2.50;0.70;;;;;;;34.16;30.88;160172.14;1684952;85;21399;-79
2021/06/01 10:26:45;;;;;;;1.32;0.72;;;;;;;34.15;30.85;160170.78;1684821;85;21344;-88
2021/06/01 10:29:17;;;;;;;2.05;1.00;;;;;;;34.17;30.83;160174.83;1684982;85;21190;-78
2021/06/01 10:31:50;;;;;;;2.30;1.00;;;;;;;34.17;30.89;160174.83;1684809;85;21195;-79
2021/06/01 10:34:22;;;;;;;1.35;0.90;;;;;;;34.18;31.08;160177.50;1684850;85;21391;-80
2021/06/01 10:42:44;;;;;;;0.80;0.80;;;;;;;34.14;30.87;160168.09;1684742;83;21330;-79
2021/06/01 10:50:44;;;;;;;2.72;0.82;;;;;;;34.14;30.73;160168.09;1685026;85;21812;-80
2021/06/01 10:55:59;;;;;;;1.65;0.70;;;;;;;34.14;30.72;160166.80;1684765;85;21404;-79
2021/06/01 10:58:44;;;;;;;4.12;0.85;;;;;;;34.13;30.70;160164.11;1684970;85;21884;-80
2021/06/01 11:04:24;;;;;;;2.25;0.78;;;;;;;34.15;30.72;160169.47;1684790;85;21349;-79
2021/06/01 11:07:13;;;;;;;2.25;0.90;;;;;;;34.15;30.83;160170.78;1684793;85;21249;-82
2021/06/01 11:09:50;;;;;;;1.98;1.02;;;;;;;34.17;30.85;160176.12;1684665;83;21829;-79
2021/06/01 11:12:29;;;;;;;3.08;0.80;;;;;;;34.24;30.93;160193.50;1684877;85;21250;-80
2021/06/01 11:15:03;;;;;;;1.32;0.90;;;;;;;34.25;30.99;160197.55;1684882;84;21333;-79
2021/06/01 11:17:40;;;;;;;1.05;0.90;;;;;;;34.27;30.94;160202.84;1662815;85;21185;-79
2021/06/01 11:20:22;;;;;;;1.67;0.65;;;;;;;34.27;30.79;160202.84;1684778;85;21407;-79
2021/06/01 11:23:37;;;;;;;2.50;1.10;;;;;;;34.29;30.58;160206.89;1684682;83;21399;-81
2021/06/01 11:34:11;;;;;;;1.30;0.88;;;;;;;34.43;30.48;160244.31;1685296;85;21357;-80
2021/06/01 11:36:43;;;;;;;3.12;0.90;;;;;;;34.50;30.57;160263.02;1684987;85;21321;-79
2021/06/01 11:39:46;;;;;;;2.02;0.85;;;;;;;34.51;30.65;160267.00;1684859;85;21259;-79
2021/06/01 11:45:03;;;;;;;1.15;0.95;;;;;;;34.61;30.66;160293.78;1685115;85;21205;-79
2021/06/01 11:48:06;;;;;;;3.08;0.90;;;;;;;34.59;30.42;160288.47;1685099;85;22462;-79
2021/06/01 11:53:21;;;;;;;1.45;0.80;;;;;;;34.62;30.27;160295.14;1684847;85;21332;-80
2021/06/01 11:56:02;;;;;;;0.93;0.93;;;;;;;34.65;30.24;160304.48;1684894;85;21269;-80
2021/06/01 12:04:12;;;;;;;2.70;0.80;;;;;;;34.51;30.30;160267.00;1685216;85;21380;-80
2021/06/01 12:20:53;;;;;;;0.95;0.88;;;;;;;34.79;30.08;160341.92;1685338;85;21230;-79
2021/06/01 12:23:49;;;;;;;2.02;0.90;;;;;;;34.79;29.95;160340.56;1685309;85;21265;-79
2021/06/01 12:32:18;;;;;;;0.70;0.70;;;;;;;34.79;29.99;160341.92;1685390;85;21210;-79
2021/06/01 12:43:42;;;;;;;1.00;0.70;;;;;;;34.88;29.97;160365.97;1663660;85;21348;-80
2021/06/01 12:46:18;;;;;;;2.20;1.05;;;;;;;34.83;29.75;160352.64;1685274;85;21832;-80
2021/06/01 13:12:17;;;;;;;3.05;1.17;;;;;;;34.75;29.76;160329.91;1685245;84;21293;-80
2021/06/01 13:46:23;;;;;;;3.25;1.00;;;;;;;34.99;29.53;160395.39;1685415;85;21257;-80
2021/06/01 13:49:00;;;;;;;1.57;1.00;;;;;;;35.37;29.22;160497.06;1685266;85;21226;-80
2021/06/01 13:52:13;;;;;;;1.90;1.10;;;;;;;35.21;29.03;160454.27;1685664;85;21227;-80
2021/06/01 13:57:26;;;;;;;2.72;1.00;;;;;;;35.09;29.15;160420.86;1660754;84;21806;-81
2021/06/01 14:19:55;;;;;;;1.73;1.00;;;;;;;35.01;29.31;160399.42;1677287;84;21263;-81
2021/06/01 15:30:32;;;;;;;1.10;0.95;;;;;;;35.03;29.75;160404.73;1648583;85;21250;-79
2021/06/01 15:32:12;;;;;;;1.40;1.07;;;;;;;35.07;29.70;160416.81;1642404;85;21183;-77
2021/06/01 15:49:22;;;;;;;1.98;1.15;;;;;;;34.86;29.91;160360.63;1669721;85;21749;-79
2021/06/01 15:51:53;;;;;;;5.95;1.00;;;;;;;34.79;30.13;160340.56;1665032;84;21428;-79
2021/06/01 16:11:46;;;;;;;3.25;1.42;;;;;;;34.90;29.80;160369.97;1668278;83;20686;-78
2021/06/01 16:14:33;;;;;;;1.60;1.22;;;;;;;34.82;29.92;160349.97;1659772;84;21404;-79
2021/06/01 16:22:56;;;;;;;2.02;1.20;;;;;;;34.85;29.85;160357.94;1661758;83;21905;-79
2021/06/01 16:31:28;;;;;;;14.45;6.30;;;;;;;34.75;30.10;160331.22;1659055;84;21239;-81
2021/06/01 16:42:28;;;;;;;3.22;2.25;;;;;;;34.59;30.29;160288.47;1666783;85;21388;-80
2021/06/01 17:04:45;;;;;;;3.45;1.90;;;;;;;34.49;30.46;160260.33;1685071;85;21345;-78